createdAt,value
2017-08-14T15:35:32.512Z,4.50
2017-08-14T15:38:02.128Z,15.50
2017-08-14T15:40:31.049Z,5.33
2017-08-14T15:43:01.256Z,7.10
2017-08-14T15:45:30.369Z,10.37
2017-08-14T15:47:59.780Z,13.83
2017-08-14T15:50:29.331Z,16.60
2017-08-14T15:52:58.142Z,17.40
2017-08-14T15:55:27.070Z,16.87
2017-08-14T15:57:55.877Z,12.87
2017-08-14T16:00:24.669Z,12.07
2017-08-14T16:02:53.997Z,7.10
2017-08-14T16:05:23.605Z,6.13
2017-08-14T16:07:53.022Z,7.60
2017-08-14T16:10:23.955Z,5.13
2017-08-14T16:12:54.611Z,7.53
2017-08-14T16:15:24.431Z,8.63
2017-08-14T16:17:53.813Z,4.40
2017-08-14T16:20:23.133Z,3.40
2017-08-14T16:29:02.497Z,4.10
2017-08-14T16:31:31.163Z,13.93
2017-08-14T16:33:58.880Z,5.40
2017-08-14T16:39:34.015Z,4.30
2017-08-14T16:42:32.726Z,3.25
2017-08-14T16:45:02.350Z,10.03
2017-08-14T16:47:34.140Z,4.07
2017-08-14T16:50:04.128Z,10.13
2017-08-14T16:52:32.962Z,5.67
2017-08-14T16:55:02.118Z,13.93
2017-08-14T16:57:31.432Z,5.10
2017-08-14T17:04:38.846Z,5.37
2017-08-14T17:07:09.711Z,3.50
2017-08-14T17:09:38.589Z,15.57
2017-08-14T17:12:07.641Z,21.57
2017-08-14T17:14:36.463Z,19.10
2017-08-14T17:17:05.694Z,15.60
2017-08-14T17:19:37.045Z,10.67
2017-08-14T17:22:05.874Z,12.73
2017-08-14T17:24:34.949Z,14.60
2017-08-14T17:27:04.047Z,10.20
2017-08-14T17:29:32.897Z,8.83
2017-08-14T17:32:01.761Z,13.87
2017-08-14T17:34:31.996Z,5.70
2017-08-14T17:40:38.430Z,5.93
2017-08-14T17:46:45.938Z,10.60
2017-08-14T17:49:13.636Z,5.63
2017-08-14T17:51:41.459Z,6.10
2017-08-14T17:54:09.229Z,4.87
2017-08-14T17:56:36.711Z,5.23
2017-08-14T17:59:04.231Z,8.30
2017-08-14T18:01:31.942Z,10.60
2017-08-14T18:08:57.097Z,5.90
2017-08-14T18:13:46.403Z,27.73
2017-08-14T18:16:15.257Z,8.90
2017-08-14T18:18:44.620Z,9.20
2017-08-14T18:21:13.568Z,19.03
2017-08-14T18:23:42.707Z,9.50
2017-08-14T18:26:12.466Z,12.20
2017-08-14T18:28:41.689Z,14.03
2017-08-14T18:31:10.997Z,11.23
2017-08-14T18:33:39.813Z,9.33
2017-08-14T18:36:09.585Z,14.83
2017-08-14T18:38:38.642Z,6.97
2017-08-14T18:41:07.457Z,9.07
2017-08-14T18:43:36.272Z,9.90
2017-08-14T18:46:05.072Z,6.80
2017-08-14T18:48:33.895Z,7.33
2017-08-14T18:51:02.716Z,8.03
2017-08-14T18:53:31.519Z,11.10
2017-08-14T18:56:00.445Z,6.77
2017-08-14T18:58:29.370Z,13.00
2017-08-14T19:32:22.521Z,16.40
2017-08-14T19:34:51.396Z,13.00
2017-08-14T19:37:22.728Z,20.47
2017-08-14T19:39:51.862Z,10.23
2017-08-14T19:42:20.668Z,32.77
2017-08-14T19:44:49.767Z,16.07
2017-08-14T19:50:07.569Z,13.30
2017-08-14T19:54:25.272Z,29.10
2017-08-14T19:56:54.468Z,74.27
2017-08-14T20:06:42.961Z,37.03
2017-08-14T20:09:11.813Z,22.77
2017-08-14T20:11:40.884Z,16.70
2017-08-14T20:14:10.410Z,17.27
2017-08-14T20:25:28.443Z,12.43
2017-08-14T20:27:56.125Z,14.80
2017-08-14T20:30:23.881Z,11.93
2017-08-14T20:32:51.730Z,76.23
2017-08-14T20:35:19.714Z,71.20
2017-08-14T20:37:48.313Z,118.70
2017-08-14T20:40:15.753Z,62.03
2017-08-14T20:42:43.521Z,41.67
2017-08-14T20:45:11.058Z,32.83
2017-08-14T20:47:38.506Z,31.53
2017-08-14T20:50:06.478Z,13.67
2017-08-14T20:52:34.041Z,19.27
2017-08-14T20:55:01.724Z,15.20
2017-08-14T20:57:30.020Z,17.97
2017-08-14T20:59:57.474Z,10.53
2017-08-14T21:02:25.264Z,16.93
2017-08-14T21:04:53.006Z,12.30
2017-08-14T21:07:20.461Z,10.30
2017-08-14T21:09:48.169Z,11.00
2017-08-14T21:12:17.677Z,13.77
2017-08-14T21:20:48.319Z,8.97
2017-08-14T21:23:16.448Z,8.50
2017-08-14T21:25:43.933Z,7.97
2017-08-14T21:30:04.258Z,9.40
2017-08-14T21:32:31.708Z,8.93
2017-08-14T21:34:59.968Z,10.60
2017-08-14T21:37:27.430Z,18.00
2017-08-14T21:39:55.011Z,16.00
2017-08-14T21:42:22.666Z,20.77
2017-08-14T21:44:50.164Z,21.77
2017-08-14T21:47:17.627Z,16.33
2017-08-14T21:49:45.516Z,12.40
2017-08-14T21:52:12.994Z,8.77
2017-08-14T21:54:40.449Z,9.43
2017-08-14T21:57:07.973Z,10.90
2017-08-14T21:59:36.148Z,10.30
2017-08-14T22:02:04.376Z,7.70
2017-08-14T22:04:31.846Z,9.63
2017-08-14T22:06:59.329Z,9.73
2017-08-14T22:09:27.565Z,11.47
2017-08-14T22:11:56.092Z,7.40
2017-08-14T22:14:24.683Z,7.50
2017-08-14T22:16:52.170Z,16.13
2017-08-14T22:19:19.643Z,8.93
2017-08-14T22:21:47.101Z,15.00
2017-08-14T22:24:15.525Z,9.03
2017-08-14T22:26:42.996Z,11.00
2017-08-14T22:29:10.532Z,12.93
2017-08-14T22:31:38.756Z,24.53
2017-08-14T22:34:07.029Z,10.90
2017-08-14T22:36:34.509Z,11.40
2017-08-14T22:39:02.754Z,10.77
2017-08-14T22:41:30.317Z,15.83
2017-08-14T22:43:58.736Z,12.27
2017-08-14T22:46:27.660Z,13.97
2017-08-14T22:48:57.946Z,19.53
2017-08-14T22:51:28.270Z,21.27
2017-08-14T22:53:56.366Z,21.10
2017-08-14T22:56:23.842Z,44.57
2017-08-14T22:58:51.312Z,26.30
2017-08-14T23:01:18.809Z,31.30
2017-08-14T23:03:46.319Z,22.57
2017-08-14T23:06:13.804Z,18.33
2017-08-14T23:08:41.278Z,13.90
2017-08-14T23:11:09.301Z,13.93
2017-08-14T23:13:36.931Z,11.20
2017-08-14T23:16:05.144Z,11.97
2017-08-14T23:18:32.602Z,13.10
2017-08-14T23:21:01.016Z,11.33
2017-08-14T23:23:29.471Z,10.17
2017-08-14T23:25:56.942Z,8.90
2017-08-14T23:28:24.393Z,20.97
2017-08-14T23:30:51.861Z,51.37
2017-08-14T23:33:20.457Z,36.07
2017-08-14T23:35:48.344Z,44.07
2017-08-14T23:38:15.839Z,40.13
2017-08-14T23:40:43.521Z,28.60
2017-08-14T23:43:11.903Z,17.27
2017-08-14T23:45:40.080Z,13.80
2017-08-14T23:48:07.536Z,15.20
2017-08-14T23:50:35.013Z,14.57
2017-08-14T23:53:02.505Z,27.10
2017-08-14T23:55:32.518Z,23.50
2017-08-14T23:58:02.754Z,68.50
